sensor_id;sensor_type;location;lat;lon;timestamp;temperature;humidity
62476;DHT22;50739;45.670;11.936;2023-04-01T00:01:30;10.59;90.16
62476;DHT22;50739;45.670;11.936;2023-04-01T00:06:34;10.58;90.50
62476;DHT22;50739;45.670;11.936;2023-04-01T00:11:36;10.58;89.84
62476;DHT22;50739;45.670;11.936;2023-04-01T00:16:38;10.49;90.07
62476;DHT22;50739;45.670;11.936;2023-04-01T00:21:41;10.20;90.38
62476;DHT22;50739;45.670;11.936;2023-04-01T00:26:43;10.21;90.17
62476;DHT22;50739;45.670;11.936;2023-04-01T00:31:45;9.90;90.37
62476;DHT22;50739;45.670;11.936;2023-04-01T00:36:48;10.10;90.37
62476;DHT22;50739;45.670;11.936;2023-04-01T00:41:50;10.16;90.50
62476;DHT22;50739;45.670;11.936;2023-04-01T00:46:52;10.20;90.53
62476;DHT22;50739;45.670;11.936;2023-04-01T00:51:57;9.78;91.42
62476;DHT22;50739;45.670;11.936;2023-04-01T00:57:02;9.99;90.51
62476;DHT22;50739;45.670;11.936;2023-04-01T01:02:08;10.03;90.07
62476;DHT22;50739;45.670;11.936;2023-04-01T01:07:20;9.89;90.95
62476;DHT22;50739;45.670;11.936;2023-04-01T01:12:33;9.76;90.13
62476;DHT22;50739;45.670;11.936;2023-04-01T01:17:45;9.73;90.68
62476;DHT22;50739;45.670;11.936;2023-04-01T01:23:03;9.51;91.91
62476;DHT22;50739;45.670;11.936;2023-04-01T01:28:21;9.68;91.19
62476;DHT22;50739;45.670;11.936;2023-04-01T01:33:56;9.75;91.13
62476;DHT22;50739;45.670;11.936;2023-04-01T01:39:05;9.72;91.41
62476;DHT22;50739;45.670;11.936;2023-04-01T01:44:10;9.65;90.99
62476;DHT22;50739;45.670;11.936;2023-04-01T01:49:14;9.53;91.36
62476;DHT22;50739;45.670;11.936;2023-04-01T01:54:18;9.59;90.70
62476;DHT22;50739;45.670;11.936;2023-04-01T01:59:20;9.55;91.30
62476;DHT22;50739;45.670;11.936;2023-04-01T02:04:25;9.56;91.16
62476;DHT22;50739;45.670;11.936;2023-04-01T02:09:28;9.49;91.08
62476;DHT22;50739;45.670;11.936;2023-04-01T02:14:36;9.35;91.42
62476;DHT22;50739;45.670;11.936;2023-04-01T02:19:47;9.45;90.85
62476;DHT22;50739;45.670;11.936;2023-04-01T02:24:54;9.51;90.40
62476;DHT22;50739;45.670;11.936;2023-04-01T02:29:59;9.53;89.86
62476;DHT22;50739;45.670;11.936;2023-04-01T02:35:01;9.42;89.50
62476;DHT22;50739;45.670;11.936;2023-04-01T02:40:11;9.38;88.87
62476;DHT22;50739;45.670;11.936;2023-04-01T02:45:14;9.24;89.43
62476;DHT22;50739;45.670;11.936;2023-04-01T02:50:16;9.27;89.39
62476;DHT22;50739;45.670;11.936;2023-04-01T02:55:19;9.04;89.19
62476;DHT22;50739;45.670;11.936;2023-04-01T03:00:21;9.06;89.35
62476;DHT22;50739;45.670;11.936;2023-04-01T03:05:23;9.17;88.92
62476;DHT22;50739;45.670;11.936;2023-04-01T03:10:26;9.07;88.60
62476;DHT22;50739;45.670;11.936;2023-04-01T03:15:28;8.94;88.54
62476;DHT22;50739;45.670;11.936;2023-04-01T03:20:30;8.88;89.18
62476;DHT22;50739;45.670;11.936;2023-04-01T03:25:33;8.88;89.68
62476;DHT22;50739;45.670;11.936;2023-04-01T03:30:35;8.94;89.37
62476;DHT22;50739;45.670;11.936;2023-04-01T03:35:37;8.86;89.52
62476;DHT22;50739;45.670;11.936;2023-04-01T03:40:43;8.84;89.57
62476;DHT22;50739;45.670;11.936;2023-04-01T03:45:45;8.81;89.08
62476;DHT22;50739;45.670;11.936;2023-04-01T03:50:48;8.75;89.28
62476;DHT22;50739;45.670;11.936;2023-04-01T03:55:51;8.79;89.19
62476;DHT22;50739;45.670;11.936;2023-04-01T04:00:53;8.83;88.75
62476;DHT22;50739;45.670;11.936;2023-04-01T04:05:55;8.99;88.11
62476;DHT22;50739;45.670;11.936;2023-04-01T04:10:59;8.73;88.54
62476;DHT22;50739;45.670;11.936;2023-04-01T04:16:00;8.63;88.96
62476;DHT22;50739;45.670;11.936;2023-04-01T04:21:02;8.56;88.86
62476;DHT22;50739;45.670;11.936;2023-04-01T04:26:07;8.55;88.91
62476;DHT22;50739;45.670;11.936;2023-04-01T04:31:10;8.44;89.08
62476;DHT22;50739;45.670;11.936;2023-04-01T04:36:12;8.37;89.68
62476;DHT22;50739;45.670;11.936;2023-04-01T04:41:17;8.49;88.91
62476;DHT22;50739;45.670;11.936;2023-04-01T04:46:19;8.24;89.48
62476;DHT22;50739;45.670;11.936;2023-04-01T04:51:22;8.35;89.09
62476;DHT22;50739;45.670;11.936;2023-04-01T04:56:25;8.11;89.80
62476;DHT22;50739;45.670;11.936;2023-04-01T05:01:27;8.22;89.60
62476;DHT22;50739;45.670;11.936;2023-04-01T05:06:29;8.28;89.14
62476;DHT22;50739;45.670;11.936;2023-04-01T05:11:33;8.18;89.74
62476;DHT22;50739;45.670;11.936;2023-04-01T05:16:35;8.28;89.20
62476;DHT22;50739;45.670;11.936;2023-04-01T05:21:37;8.34;89.44
62476;DHT22;50739;45.670;11.936;2023-04-01T05:26:40;8.39;89.43
62476;DHT22;50739;45.670;11.936;2023-04-01T05:31:42;8.34;89.72
62476;DHT22;50739;45.670;11.936;2023-04-01T05:36:45;8.45;89.64
62476;DHT22;50739;45.670;11.936;2023-04-01T05:41:48;8.45;89.76
62476;DHT22;50739;45.670;11.936;2023-04-01T05:46:50;8.63;89.23
62476;DHT22;50739;45.670;11.936;2023-04-01T05:51:52;8.75;89.01
62476;DHT22;50739;45.670;11.936;2023-04-01T05:56:55;8.63;88.76
62476;DHT22;50739;45.670;11.936;2023-04-01T06:01:57;8.53;89.88
62476;DHT22;50739;45.670;11.936;2023-04-01T06:06:59;8.62;89.86
62476;DHT22;50739;45.670;11.936;2023-04-01T06:17:43;9.06;88.98
62476;DHT22;50739;45.670;11.936;2023-04-01T06:23:09;9.10;88.79
62476;DHT22;50739;45.670;11.936;2023-04-01T06:34:01;9.23;89.49
62476;DHT22;50739;45.670;11.936;2023-04-01T06:39:16;9.18;89.90
62476;DHT22;50739;45.670;11.936;2023-04-01T06:44:24;9.21;90.06
62476;DHT22;50739;45.670;11.936;2023-04-01T06:49:47;9.42;89.79
62476;DHT22;50739;45.670;11.936;2023-04-01T06:54:55;9.48;89.84
62476;DHT22;50739;45.670;11.936;2023-04-01T07:00:13;9.66;89.67
62476;DHT22;50739;45.670;11.936;2023-04-01T07:05:15;9.59;90.27
62476;DHT22;50739;45.670;11.936;2023-04-01T07:10:20;9.69;90.52
62476;DHT22;50739;45.670;11.936;2023-04-01T07:15:29;9.83;90.41
62476;DHT22;50739;45.670;11.936;2023-04-01T07:20:33;10.03;89.99
62476;DHT22;50739;45.670;11.936;2023-04-01T07:25:38;10.25;89.79
62476;DHT22;50739;45.670;11.936;2023-04-01T07:30:51;10.40;89.52
62476;DHT22;50739;45.670;11.936;2023-04-01T07:35:57;10.55;89.25
62476;DHT22;50739;45.670;11.936;2023-04-01T07:41:09;10.69;89.38
62476;DHT22;50739;45.670;11.936;2023-04-01T07:46:23;10.86;89.11
62476;DHT22;50739;45.670;11.936;2023-04-01T07:51:36;11.10;88.98
62476;DHT22;50739;45.670;11.936;2023-04-01T07:56:45;11.23;88.83
62476;DHT22;50739;45.670;11.936;2023-04-01T08:01:56;11.42;88.41
62476;DHT22;50739;45.670;11.936;2023-04-01T08:07:07;11.47;88.92
62476;DHT22;50739;45.670;11.936;2023-04-01T08:12:19;11.65;89.28
62476;DHT22;50739;45.670;11.936;2023-04-01T08:17:31;11.81;87.12
62476;DHT22;50739;45.670;11.936;2023-04-01T08:22:41;12.10;87.30
62476;DHT22;50739;45.670;11.936;2023-04-01T08:27:45;12.16;85.08
62476;DHT22;50739;45.670;11.936;2023-04-01T08:32:53;12.27;83.85
62476;DHT22;50739;45.670;11.936;2023-04-01T08:37:59;12.41;85.25
62476;DHT22;50739;45.670;11.936;2023-04-01T08:43:08;12.47;85.72
62476;DHT22;50739;45.670;11.936;2023-04-01T08:54:22;12.62;84.31
62476;DHT22;50739;45.670;11.936;2023-04-01T08:59:45;12.64;84.80
62476;DHT22;50739;45.670;11.936;2023-04-01T09:05:07;12.74;84.41
62476;DHT22;50739;45.670;11.936;2023-04-01T09:15:58;12.84;83.47
62476;DHT22;50739;45.670;11.936;2023-04-01T09:27:02;12.95;82.17
62476;DHT22;50739;45.670;11.936;2023-04-01T09:32:16;13.20;79.38
62476;DHT22;50739;45.670;11.936;2023-04-01T09:37:34;13.67;75.97
62476;DHT22;50739;45.670;11.936;2023-04-01T09:42:45;13.78;77.56
62476;DHT22;50739;45.670;11.936;2023-04-01T09:48:00;14.05;74.91
62476;DHT22;50739;45.670;11.936;2023-04-01T09:53:15;14.10;73.28
62476;DHT22;50739;45.670;11.936;2023-04-01T09:58:40;14.30;69.79
62476;DHT22;50739;45.670;11.936;2023-04-01T10:09:47;14.61;69.12
62476;DHT22;50739;45.670;11.936;2023-04-01T10:20:53;14.73;67.73
62476;DHT22;50739;45.670;11.936;2023-04-01T10:26:27;14.84;68.02
62476;DHT22;50739;45.670;11.936;2023-04-01T10:31:47;15.02;67.66
62476;DHT22;50739;45.670;11.936;2023-04-01T10:36:54;15.43;66.32
62476;DHT22;50739;45.670;11.936;2023-04-01T10:48:16;15.74;67.93
62476;DHT22;50739;45.670;11.936;2023-04-01T10:53:34;15.88;69.23
62476;DHT22;50739;45.670;11.936;2023-04-01T11:04:46;15.77;68.73
62476;DHT22;50739;45.670;11.936;2023-04-01T11:27:19;16.11;64.34
62476;DHT22;50739;45.670;11.936;2023-04-01T11:32:43;16.26;64.49
62476;DHT22;50739;45.670;11.936;2023-04-01T11:37:52;16.28;61.53
62476;DHT22;50739;45.670;11.936;2023-04-01T11:43:03;16.55;62.63
62476;DHT22;50739;45.670;11.936;2023-04-01T11:48:16;16.69;61.42
62476;DHT22;50739;45.670;11.936;2023-04-01T11:53:37;16.74;62.00
62476;DHT22;50739;45.670;11.936;2023-04-01T11:59:13;16.88;60.80
62476;DHT22;50739;45.670;11.936;2023-04-01T12:04:46;16.98;59.68
62476;DHT22;50739;45.670;11.936;2023-04-01T12:10:02;17.25;58.46
62476;DHT22;50739;45.670;11.936;2023-04-01T12:15:17;17.39;58.16
62476;DHT22;50739;45.670;11.936;2023-04-01T12:20:40;17.61;59.61
62476;DHT22;50739;45.670;11.936;2023-04-01T12:31:27;17.89;59.70
62476;DHT22;50739;45.670;11.936;2023-04-01T12:36:48;18.00;59.40
62476;DHT22;50739;45.670;11.936;2023-04-01T12:41:58;18.21;56.39
62476;DHT22;50739;45.670;11.936;2023-04-01T12:47:16;18.49;56.15
62476;DHT22;50739;45.670;11.936;2023-04-01T12:52:26;18.63;59.13
62476;DHT22;50739;45.670;11.936;2023-04-01T13:03:16;19.02;58.39
62476;DHT22;50739;45.670;11.936;2023-04-01T13:08:33;19.24;56.95
62476;DHT22;50739;45.670;11.936;2023-04-01T13:13:58;19.15;55.08
62476;DHT22;50739;45.670;11.936;2023-04-01T13:19:07;19.49;55.45
62476;DHT22;50739;45.670;11.936;2023-04-01T13:29:36;20.30;55.55
62476;DHT22;50739;45.670;11.936;2023-04-01T13:34:49;20.18;54.38
62476;DHT22;50739;45.670;11.936;2023-04-01T13:40:05;20.61;54.94
62476;DHT22;50739;45.670;11.936;2023-04-01T13:45:15;20.61;54.22
62476;DHT22;50739;45.670;11.936;2023-04-01T13:50:49;20.62;52.66
62476;DHT22;50739;45.670;11.936;2023-04-01T13:56:12;20.38;50.83
62476;DHT22;50739;45.670;11.936;2023-04-01T14:01:23;20.55;52.06
62476;DHT22;50739;45.670;11.936;2023-04-01T14:06:31;20.83;51.16
62476;DHT22;50739;45.670;11.936;2023-04-01T14:11:41;20.64;52.19
62476;DHT22;50739;45.670;11.936;2023-04-01T14:17:17;20.76;52.58
62476;DHT22;50739;45.670;11.936;2023-04-01T14:22:27;21.74;52.53
62476;DHT22;50739;45.670;11.936;2023-04-01T14:27:44;21.53;49.81
62476;DHT22;50739;45.670;11.936;2023-04-01T14:32:53;21.28;49.04
62476;DHT22;50739;45.670;11.936;2023-04-01T14:38:30;20.83;49.29
62476;DHT22;50739;45.670;11.936;2023-04-01T14:49:32;21.44;51.62
62476;DHT22;50739;45.670;11.936;2023-04-01T14:54:38;21.79;52.16
62476;DHT22;50739;45.670;11.936;2023-04-01T14:59:48;21.78;48.37
62476;DHT22;50739;45.670;11.936;2023-04-01T15:04:55;21.74;49.76
62476;DHT22;50739;45.670;11.936;2023-04-01T15:10:06;21.83;49.21
62476;DHT22;50739;45.670;11.936;2023-04-01T15:15:24;21.58;50.35
62476;DHT22;50739;45.670;11.936;2023-04-01T15:20:55;21.66;50.38
62476;DHT22;50739;45.670;11.936;2023-04-01T15:26:22;21.48;49.67
62476;DHT22;50739;45.670;11.936;2023-04-01T15:31:32;21.66;49.81
62476;DHT22;50739;45.670;11.936;2023-04-01T15:36:41;21.99;49.61
62476;DHT22;50739;45.670;11.936;2023-04-01T15:41:58;21.86;48.32
62476;DHT22;50739;45.670;11.936;2023-04-01T15:47:07;21.95;49.72
62476;DHT22;50739;45.670;11.936;2023-04-01T15:52:37;22.23;55.10
62476;DHT22;50739;45.670;11.936;2023-04-01T15:57:56;22.57;53.33
62476;DHT22;50739;45.670;11.936;2023-04-01T16:03:21;22.83;54.83
62476;DHT22;50739;45.670;11.936;2023-04-01T16:08:49;22.96;54.66
62476;DHT22;50739;45.670;11.936;2023-04-01T16:14:06;22.64;56.01
62476;DHT22;50739;45.670;11.936;2023-04-01T16:19:22;22.17;57.57
62476;DHT22;50739;45.670;11.936;2023-04-01T16:24:33;21.77;58.89
62476;DHT22;50739;45.670;11.936;2023-04-01T16:29:42;21.26;59.20
62476;DHT22;50739;45.670;11.936;2023-04-01T16:34:47;20.56;61.84
62476;DHT22;50739;45.670;11.936;2023-04-01T16:40:09;20.00;62.26
62476;DHT22;50739;45.670;11.936;2023-04-01T16:45:26;19.76;63.78
62476;DHT22;50739;45.670;11.936;2023-04-01T16:50:42;19.54;64.78
62476;DHT22;50739;45.670;11.936;2023-04-01T16:55:50;19.20;66.64
62476;DHT22;50739;45.670;11.936;2023-04-01T17:00:59;18.87;67.36
62476;DHT22;50739;45.670;11.936;2023-04-01T17:06:19;18.80;67.77
62476;DHT22;50739;45.670;11.936;2023-04-01T17:11:27;18.72;67.62
62476;DHT22;50739;45.670;11.936;2023-04-01T17:17:11;18.38;69.02
62476;DHT22;50739;45.670;11.936;2023-04-01T17:22:27;18.25;69.21
62476;DHT22;50739;45.670;11.936;2023-04-01T17:27:40;18.05;69.58
62476;DHT22;50739;45.670;11.936;2023-04-01T17:32:57;17.89;70.20
62476;DHT22;50739;45.670;11.936;2023-04-01T17:38:13;17.79;70.34
62476;DHT22;50739;45.670;11.936;2023-04-01T17:43:23;17.56;70.73
62476;DHT22;50739;45.670;11.936;2023-04-01T17:48:38;17.40;71.22
62476;DHT22;50739;45.670;11.936;2023-04-01T17:53:47;17.29;71.78
62476;DHT22;50739;45.670;11.936;2023-04-01T17:58:59;17.06;72.29
62476;DHT22;50739;45.670;11.936;2023-04-01T18:04:17;16.79;72.68
62476;DHT22;50739;45.670;11.936;2023-04-01T18:09:31;16.79;72.50
62476;DHT22;50739;45.670;11.936;2023-04-01T18:14:58;16.70;72.51
62476;DHT22;50739;45.670;11.936;2023-04-01T18:20:18;16.73;72.39
62476;DHT22;50739;45.670;11.936;2023-04-01T18:25:27;16.77;71.63
62476;DHT22;50739;45.670;11.936;2023-04-01T18:30:31;16.53;72.47
62476;DHT22;50739;45.670;11.936;2023-04-01T18:35:48;16.33;73.28
62476;DHT22;50739;45.670;11.936;2023-04-01T18:41:07;16.12;73.80
62476;DHT22;50739;45.670;11.936;2023-04-01T18:46:17;15.90;74.58
62476;DHT22;50739;45.670;11.936;2023-04-01T18:51:27;15.70;75.39
62476;DHT22;50739;45.670;11.936;2023-04-01T18:56:36;15.54;76.05
62476;DHT22;50739;45.670;11.936;2023-04-01T19:01:41;15.46;76.11
62476;DHT22;50739;45.670;11.936;2023-04-01T19:06:48;15.28;76.88
62476;DHT22;50739;45.670;11.936;2023-04-01T19:17:38;15.16;76.93
62476;DHT22;50739;45.670;11.936;2023-04-01T19:28:26;14.87;78.35
62476;DHT22;50739;45.670;11.936;2023-04-01T19:33:41;14.99;77.78
62476;DHT22;50739;45.670;11.936;2023-04-01T19:38:53;14.92;78.22
62476;DHT22;50739;45.670;11.936;2023-04-01T19:44:09;14.80;78.92
62476;DHT22;50739;45.670;11.936;2023-04-01T19:49:26;14.73;79.31
62476;DHT22;50739;45.670;11.936;2023-04-01T19:54:39;14.70;79.79
62476;DHT22;50739;45.670;11.936;2023-04-01T19:59:47;14.84;79.08
62476;DHT22;50739;45.670;11.936;2023-04-01T20:04:53;14.75;80.38
62476;DHT22;50739;45.670;11.936;2023-04-01T20:10:03;14.68;80.60
62476;DHT22;50739;45.670;11.936;2023-04-01T20:15:21;14.57;81.18
62476;DHT22;50739;45.670;11.936;2023-04-01T20:20:27;14.70;80.76
62476;DHT22;50739;45.670;11.936;2023-04-01T20:25:37;14.50;81.61
62476;DHT22;50739;45.670;11.936;2023-04-01T20:30:55;14.46;81.86
62476;DHT22;50739;45.670;11.936;2023-04-01T20:36:06;14.39;81.89
62476;DHT22;50739;45.670;11.936;2023-04-01T20:41:23;14.43;81.35
62476;DHT22;50739;45.670;11.936;2023-04-01T20:46:32;14.43;81.45
62476;DHT22;50739;45.670;11.936;2023-04-01T20:51:37;14.30;81.71
62476;DHT22;50739;45.670;11.936;2023-04-01T20:56:48;14.39;81.49
62476;DHT22;50739;45.670;11.936;2023-04-01T21:02:04;14.33;81.23
62476;DHT22;50739;45.670;11.936;2023-04-01T21:07:20;14.48;80.64
62476;DHT22;50739;45.670;11.936;2023-04-01T21:12:32;14.51;80.09
62476;DHT22;50739;45.670;11.936;2023-04-01T21:17:45;14.50;79.59
62476;DHT22;50739;45.670;11.936;2023-04-01T21:23:01;14.44;79.28
62476;DHT22;50739;45.670;11.936;2023-04-01T21:33:45;14.40;79.46
62476;DHT22;50739;45.670;11.936;2023-04-01T21:39:03;14.60;78.64
62476;DHT22;50739;45.670;11.936;2023-04-01T21:44:25;14.46;78.91
62476;DHT22;50739;45.670;11.936;2023-04-01T21:50:02;14.48;78.57
62476;DHT22;50739;45.670;11.936;2023-04-01T21:55:34;14.51;77.94
62476;DHT22;50739;45.670;11.936;2023-04-01T22:00:48;14.43;77.76
62476;DHT22;50739;45.670;11.936;2023-04-01T22:06:04;14.44;77.60
62476;DHT22;50739;45.670;11.936;2023-04-01T22:11:14;14.40;78.19
62476;DHT22;50739;45.670;11.936;2023-04-01T22:16:28;14.36;77.68
62476;DHT22;50739;45.670;11.936;2023-04-01T22:21:38;14.36;77.53
62476;DHT22;50739;45.670;11.936;2023-04-01T22:26:51;14.32;77.30
62476;DHT22;50739;45.670;11.936;2023-04-01T22:32:01;14.50;75.78
62476;DHT22;50739;45.670;11.936;2023-04-01T22:37:12;14.50;76.08
62476;DHT22;50739;45.670;11.936;2023-04-01T22:42:28;14.43;77.09
62476;DHT22;50739;45.670;11.936;2023-04-01T22:47:40;14.44;77.37
62476;DHT22;50739;45.670;11.936;2023-04-01T22:52:50;14.40;77.59
62476;DHT22;50739;45.670;11.936;2023-04-01T22:57:59;14.26;77.86
62476;DHT22;50739;45.670;11.936;2023-04-01T23:03:11;14.22;78.24
62476;DHT22;50739;45.670;11.936;2023-04-01T23:13:55;14.13;78.69
62476;DHT22;50739;45.670;11.936;2023-04-01T23:19:04;14.04;78.84
62476;DHT22;50739;45.670;11.936;2023-04-01T23:24:15;14.19;77.84
62476;DHT22;50739;45.670;11.936;2023-04-01T23:29:21;14.20;77.49
62476;DHT22;50739;45.670;11.936;2023-04-01T23:34:28;14.23;77.87
62476;DHT22;50739;45.670;11.936;2023-04-01T23:39:32;14.22;77.76
62476;DHT22;50739;45.670;11.936;2023-04-01T23:44:36;14.16;78.10
62476;DHT22;50739;45.670;11.936;2023-04-01T23:49:41;14.16;77.58
62476;DHT22;50739;45.670;11.936;2023-04-01T23:54:50;14.10;77.74
